sensor_id;sensor_type;location;lat;lon;timestamp;P1;durP1;ratioP1;P2;durP2;ratioP2
4500;SDS011;2263;54.654;9.410;2023-07-13T00:02:27;3.93;;;2.53;;
4500;SDS011;2263;54.654;9.410;2023-07-13T00:04:54;3.53;;;2.23;;
4500;SDS011;2263;54.654;9.410;2023-07-13T00:07:22;7.40;;;3.10;;
4500;SDS011;2263;54.654;9.410;2023-07-13T00:09:50;3.17;;;2.87;;
4500;SDS011;2263;54.654;9.410;2023-07-13T00:12:29;4.27;;;3.30;;
4500;SDS011;2263;54.654;9.410;2023-07-13T00:15:04;4.23;;;2.80;;
4500;SDS011;2263;54.654;9.410;2023-07-13T00:17:34;2.50;;;2.30;;
4500;SDS011;2263;54.654;9.410;2023-07-13T00:20:02;2.33;;;2.13;;
4500;SDS011;2263;54.654;9.410;2023-07-13T00:22:31;3.30;;;2.53;;
4500;SDS011;2263;54.654;9.410;2023-07-13T00:24:59;3.50;;;2.47;;
4500;SDS011;2263;54.654;9.410;2023-07-13T00:27:26;5.33;;;3.30;;
4500;SDS011;2263;54.654;9.410;2023-07-13T00:29:57;2.93;;;2.63;;
4500;SDS011;2263;54.654;9.410;2023-07-13T00:32:25;3.57;;;2.80;;
4500;SDS011;2263;54.654;9.410;2023-07-13T00:34:53;3.20;;;2.50;;
4500;SDS011;2263;54.654;9.410;2023-07-13T00:37:21;4.03;;;2.73;;
4500;SDS011;2263;54.654;9.410;2023-07-13T00:39:48;4.30;;;2.83;;
4500;SDS011;2263;54.654;9.410;2023-07-13T00:42:16;2.90;;;2.60;;
4500;SDS011;2263;54.654;9.410;2023-07-13T00:45:04;2.67;;;2.47;;
4500;SDS011;2263;54.654;9.410;2023-07-13T00:47:34;4.47;;;2.80;;
4500;SDS011;2263;54.654;9.410;2023-07-13T00:50:02;2.87;;;2.67;;
4500;SDS011;2263;54.654;9.410;2023-07-13T00:52:31;3.20;;;1.87;;
4500;SDS011;2263;54.654;9.410;2023-07-13T00:54:59;3.43;;;2.57;;
4500;SDS011;2263;54.654;9.410;2023-07-13T00:57:27;4.47;;;2.73;;
4500;SDS011;2263;54.654;9.410;2023-07-13T00:59:57;3.87;;;3.43;;
4500;SDS011;2263;54.654;9.410;2023-07-13T01:02:27;3.67;;;3.00;;
4500;SDS011;2263;54.654;9.410;2023-07-13T01:04:56;3.20;;;2.53;;
4500;SDS011;2263;54.654;9.410;2023-07-13T01:07:24;2.73;;;2.47;;
4500;SDS011;2263;54.654;9.410;2023-07-13T01:09:52;5.30;;;3.03;;
4500;SDS011;2263;54.654;9.410;2023-07-13T01:12:20;6.43;;;2.70;;
4500;SDS011;2263;54.654;9.410;2023-07-13T01:14:48;6.20;;;2.83;;
4500;SDS011;2263;54.654;9.410;2023-07-13T01:17:15;3.03;;;2.60;;
4500;SDS011;2263;54.654;9.410;2023-07-13T01:19:44;3.30;;;2.77;;
4500;SDS011;2263;54.654;9.410;2023-07-13T01:22:14;8.40;;;3.30;;
4500;SDS011;2263;54.654;9.410;2023-07-13T01:24:45;3.60;;;2.83;;
4500;SDS011;2263;54.654;9.410;2023-07-13T01:27:15;3.80;;;2.70;;
4500;SDS011;2263;54.654;9.410;2023-07-13T01:29:45;3.77;;;2.90;;
4500;SDS011;2263;54.654;9.410;2023-07-13T01:32:22;4.27;;;2.33;;
4500;SDS011;2263;54.654;9.410;2023-07-13T01:34:51;4.63;;;2.33;;
4500;SDS011;2263;54.654;9.410;2023-07-13T01:37:21;5.73;;;3.00;;
4500;SDS011;2263;54.654;9.410;2023-07-13T01:39:50;2.73;;;2.00;;
4500;SDS011;2263;54.654;9.410;2023-07-13T01:42:18;4.10;;;2.60;;
4500;SDS011;2263;54.654;9.410;2023-07-13T01:44:46;2.83;;;2.50;;
4500;SDS011;2263;54.654;9.410;2023-07-13T01:47:14;5.80;;;2.77;;
4500;SDS011;2263;54.654;9.410;2023-07-13T01:49:42;4.30;;;2.30;;
4500;SDS011;2263;54.654;9.410;2023-07-13T01:52:12;2.40;;;2.20;;
4500;SDS011;2263;54.654;9.410;2023-07-13T01:54:40;4.47;;;2.37;;
4500;SDS011;2263;54.654;9.410;2023-07-13T01:57:08;3.10;;;2.60;;
4500;SDS011;2263;54.654;9.410;2023-07-13T01:59:35;3.57;;;2.70;;
4500;SDS011;2263;54.654;9.410;2023-07-13T02:02:03;5.83;;;2.47;;
4500;SDS011;2263;54.654;9.410;2023-07-13T02:04:31;5.23;;;2.80;;
4500;SDS011;2263;54.654;9.410;2023-07-13T02:07:00;2.93;;;2.00;;
4500;SDS011;2263;54.654;9.410;2023-07-13T02:09:28;2.80;;;2.20;;
4500;SDS011;2263;54.654;9.410;2023-07-13T02:11:55;2.87;;;1.93;;
4500;SDS011;2263;54.654;9.410;2023-07-13T02:14:23;15.37;;;3.37;;
4500;SDS011;2263;54.654;9.410;2023-07-13T02:16:51;2.63;;;2.17;;
4500;SDS011;2263;54.654;9.410;2023-07-13T02:19:19;3.73;;;2.77;;
4500;SDS011;2263;54.654;9.410;2023-07-13T02:21:47;3.70;;;2.10;;
4500;SDS011;2263;54.654;9.410;2023-07-13T02:24:15;4.17;;;2.40;;
4500;SDS011;2263;54.654;9.410;2023-07-13T02:26:44;2.70;;;2.13;;
4500;SDS011;2263;54.654;9.410;2023-07-13T02:29:12;2.60;;;2.40;;
4500;SDS011;2263;54.654;9.410;2023-07-13T02:31:39;2.70;;;2.27;;
4500;SDS011;2263;54.654;9.410;2023-07-13T02:34:07;8.73;;;2.77;;
4500;SDS011;2263;54.654;9.410;2023-07-13T02:36:35;8.13;;;2.40;;
4500;SDS011;2263;54.654;9.410;2023-07-13T02:39:04;5.30;;;2.30;;
4500;SDS011;2263;54.654;9.410;2023-07-13T02:41:33;3.63;;;2.00;;
4500;SDS011;2263;54.654;9.410;2023-07-13T02:44:02;2.30;;;2.10;;
4500;SDS011;2263;54.654;9.410;2023-07-13T02:46:31;3.10;;;2.23;;
4500;SDS011;2263;54.654;9.410;2023-07-13T02:49:02;3.30;;;2.00;;
4500;SDS011;2263;54.654;9.410;2023-07-13T02:51:31;3.80;;;2.20;;
4500;SDS011;2263;54.654;9.410;2023-07-13T02:54:01;2.50;;;1.77;;
4500;SDS011;2263;54.654;9.410;2023-07-13T02:56:31;2.87;;;1.67;;
4500;SDS011;2263;54.654;9.410;2023-07-13T02:58:59;7.90;;;2.47;;
4500;SDS011;2263;54.654;9.410;2023-07-13T03:01:27;7.43;;;3.03;;
4500;SDS011;2263;54.654;9.410;2023-07-13T03:03:55;3.03;;;2.00;;
4500;SDS011;2263;54.654;9.410;2023-07-13T03:06:23;2.20;;;2.00;;
4500;SDS011;2263;54.654;9.410;2023-07-13T03:08:51;4.23;;;2.50;;
4500;SDS011;2263;54.654;9.410;2023-07-13T03:11:19;2.67;;;2.47;;
4500;SDS011;2263;54.654;9.410;2023-07-13T03:13:47;4.30;;;2.63;;
4500;SDS011;2263;54.654;9.410;2023-07-13T03:16:15;2.87;;;2.57;;
4500;SDS011;2263;54.654;9.410;2023-07-13T03:18:46;5.63;;;3.03;;
4500;SDS011;2263;54.654;9.410;2023-07-13T03:21:14;4.30;;;2.17;;
4500;SDS011;2263;54.654;9.410;2023-07-13T03:23:42;2.47;;;2.27;;
4500;SDS011;2263;54.654;9.410;2023-07-13T03:26:15;2.70;;;2.50;;
4500;SDS011;2263;54.654;9.410;2023-07-13T03:28:45;3.20;;;2.27;;
4500;SDS011;2263;54.654;9.410;2023-07-13T03:31:15;5.10;;;2.30;;
4500;SDS011;2263;54.654;9.410;2023-07-13T03:33:45;5.60;;;2.60;;
4500;SDS011;2263;54.654;9.410;2023-07-13T03:36:15;3.07;;;2.00;;
4500;SDS011;2263;54.654;9.410;2023-07-13T03:38:49;3.20;;;3.00;;
4500;SDS011;2263;54.654;9.410;2023-07-13T03:41:19;2.60;;;2.40;;
4500;SDS011;2263;54.654;9.410;2023-07-13T03:43:47;3.80;;;2.60;;
4500;SDS011;2263;54.654;9.410;2023-07-13T03:46:15;3.40;;;2.33;;
4500;SDS011;2263;54.654;9.410;2023-07-13T03:48:44;2.40;;;2.20;;
4500;SDS011;2263;54.654;9.410;2023-07-13T03:51:13;3.83;;;2.47;;
4500;SDS011;2263;54.654;9.410;2023-07-13T03:53:43;2.70;;;2.50;;
4500;SDS011;2263;54.654;9.410;2023-07-13T03:56:12;3.57;;;2.47;;
4500;SDS011;2263;54.654;9.410;2023-07-13T03:58:43;6.23;;;3.00;;
4500;SDS011;2263;54.654;9.410;2023-07-13T04:01:12;2.90;;;2.33;;
4500;SDS011;2263;54.654;9.410;2023-07-13T04:03:41;2.50;;;2.30;;
4500;SDS011;2263;54.654;9.410;2023-07-13T04:06:19;3.70;;;2.30;;
4500;SDS011;2263;54.654;9.410;2023-07-13T04:08:53;2.83;;;2.63;;
4500;SDS011;2263;54.654;9.410;2023-07-13T04:11:24;2.60;;;2.40;;
4500;SDS011;2263;54.654;9.410;2023-07-13T04:13:53;3.27;;;2.97;;
4500;SDS011;2263;54.654;9.410;2023-07-13T04:16:21;3.40;;;2.20;;
4500;SDS011;2263;54.654;9.410;2023-07-13T04:18:50;2.70;;;2.50;;
4500;SDS011;2263;54.654;9.410;2023-07-13T04:21:21;4.93;;;3.17;;
4500;SDS011;2263;54.654;9.410;2023-07-13T04:23:49;5.03;;;2.10;;
4500;SDS011;2263;54.654;9.410;2023-07-13T04:26:17;2.40;;;2.10;;
4500;SDS011;2263;54.654;9.410;2023-07-13T04:28:48;4.67;;;2.43;;
4500;SDS011;2263;54.654;9.410;2023-07-13T04:31:16;2.10;;;1.90;;
4500;SDS011;2263;54.654;9.410;2023-07-13T04:33:45;2.00;;;1.90;;
4500;SDS011;2263;54.654;9.410;2023-07-13T04:36:15;5.63;;;2.50;;
4500;SDS011;2263;54.654;9.410;2023-07-13T04:38:43;3.73;;;2.50;;
4500;SDS011;2263;54.654;9.410;2023-07-13T04:41:11;2.40;;;2.10;;
4500;SDS011;2263;54.654;9.410;2023-07-13T04:43:41;3.07;;;2.60;;
4500;SDS011;2263;54.654;9.410;2023-07-13T04:46:11;4.17;;;2.80;;
4500;SDS011;2263;54.654;9.410;2023-07-13T04:48:41;3.17;;;2.43;;
4500;SDS011;2263;54.654;9.410;2023-07-13T04:51:09;3.40;;;2.20;;
4500;SDS011;2263;54.654;9.410;2023-07-13T04:53:36;7.13;;;1.80;;
4500;SDS011;2263;54.654;9.410;2023-07-13T04:56:04;2.83;;;2.03;;
4500;SDS011;2263;54.654;9.410;2023-07-13T04:58:32;5.40;;;2.70;;
4500;SDS011;2263;54.654;9.410;2023-07-13T05:01:04;6.17;;;2.23;;
4500;SDS011;2263;54.654;9.410;2023-07-13T05:03:33;2.73;;;2.33;;
4500;SDS011;2263;54.654;9.410;2023-07-13T05:06:03;3.33;;;2.90;;
4500;SDS011;2263;54.654;9.410;2023-07-13T05:08:32;2.30;;;1.73;;
4500;SDS011;2263;54.654;9.410;2023-07-13T05:11:00;2.53;;;2.10;;
4500;SDS011;2263;54.654;9.410;2023-07-13T05:13:30;2.43;;;2.23;;
4500;SDS011;2263;54.654;9.410;2023-07-13T05:15:58;2.57;;;1.80;;
4500;SDS011;2263;54.654;9.410;2023-07-13T05:18:30;2.47;;;2.20;;
4500;SDS011;2263;54.654;9.410;2023-07-13T05:20:59;4.23;;;1.50;;
4500;SDS011;2263;54.654;9.410;2023-07-13T05:23:30;3.30;;;1.43;;
4500;SDS011;2263;54.654;9.410;2023-07-13T05:25:58;3.80;;;2.03;;
4500;SDS011;2263;54.654;9.410;2023-07-13T05:28:27;5.77;;;2.50;;
4500;SDS011;2263;54.654;9.410;2023-07-13T05:30:56;6.60;;;1.80;;
4500;SDS011;2263;54.654;9.410;2023-07-13T05:33:24;1.60;;;1.30;;
4500;SDS011;2263;54.654;9.410;2023-07-13T05:35:53;2.20;;;2.00;;
4500;SDS011;2263;54.654;9.410;2023-07-13T05:38:21;2.83;;;1.60;;
4500;SDS011;2263;54.654;9.410;2023-07-13T05:40:49;2.47;;;1.77;;
4500;SDS011;2263;54.654;9.410;2023-07-13T05:43:17;3.40;;;1.73;;
4500;SDS011;2263;54.654;9.410;2023-07-13T05:45:45;3.30;;;1.50;;
4500;SDS011;2263;54.654;9.410;2023-07-13T05:48:13;2.67;;;1.37;;
4500;SDS011;2263;54.654;9.410;2023-07-13T05:50:41;2.20;;;1.57;;
4500;SDS011;2263;54.654;9.410;2023-07-13T05:53:09;3.03;;;1.13;;
4500;SDS011;2263;54.654;9.410;2023-07-13T05:55:40;2.07;;;1.20;;
4500;SDS011;2263;54.654;9.410;2023-07-13T05:58:10;1.80;;;1.30;;
4500;SDS011;2263;54.654;9.410;2023-07-13T06:00:38;1.50;;;1.03;;
4500;SDS011;2263;54.654;9.410;2023-07-13T06:03:07;5.43;;;1.37;;
4500;SDS011;2263;54.654;9.410;2023-07-13T06:05:38;2.90;;;1.17;;
4500;SDS011;2263;54.654;9.410;2023-07-13T06:08:06;2.37;;;0.93;;
4500;SDS011;2263;54.654;9.410;2023-07-13T06:10:34;2.60;;;1.20;;
4500;SDS011;2263;54.654;9.410;2023-07-13T06:13:03;2.90;;;0.90;;
4500;SDS011;2263;54.654;9.410;2023-07-13T06:15:31;2.67;;;1.13;;
4500;SDS011;2263;54.654;9.410;2023-07-13T06:17:59;3.47;;;0.90;;
4500;SDS011;2263;54.654;9.410;2023-07-13T06:20:27;3.30;;;1.00;;
4500;SDS011;2263;54.654;9.410;2023-07-13T06:22:56;2.13;;;0.90;;
4500;SDS011;2263;54.654;9.410;2023-07-13T06:25:26;2.13;;;1.00;;
4500;SDS011;2263;54.654;9.410;2023-07-13T06:27:54;3.17;;;1.30;;
4500;SDS011;2263;54.654;9.410;2023-07-13T06:30:22;2.70;;;1.00;;
4500;SDS011;2263;54.654;9.410;2023-07-13T06:32:50;3.50;;;1.23;;
4500;SDS011;2263;54.654;9.410;2023-07-13T06:35:18;4.13;;;1.03;;
4500;SDS011;2263;54.654;9.410;2023-07-13T06:37:46;1.70;;;0.80;;
4500;SDS011;2263;54.654;9.410;2023-07-13T06:40:14;3.67;;;1.03;;
4500;SDS011;2263;54.654;9.410;2023-07-13T06:42:42;1.70;;;1.00;;
4500;SDS011;2263;54.654;9.410;2023-07-13T06:45:10;1.57;;;1.30;;
4500;SDS011;2263;54.654;9.410;2023-07-13T06:47:37;2.90;;;1.10;;
4500;SDS011;2263;54.654;9.410;2023-07-13T06:50:05;2.00;;;1.03;;
4500;SDS011;2263;54.654;9.410;2023-07-13T06:52:33;3.90;;;1.33;;
4500;SDS011;2263;54.654;9.410;2023-07-13T06:55:01;4.10;;;1.00;;
4500;SDS011;2263;54.654;9.410;2023-07-13T06:57:30;3.60;;;1.10;;
4500;SDS011;2263;54.654;9.410;2023-07-13T06:59:57;1.80;;;1.20;;
4500;SDS011;2263;54.654;9.410;2023-07-13T07:02:25;3.40;;;1.27;;
4500;SDS011;2263;54.654;9.410;2023-07-13T07:04:53;3.60;;;1.27;;
4500;SDS011;2263;54.654;9.410;2023-07-13T07:07:23;2.43;;;1.23;;
4500;SDS011;2263;54.654;9.410;2023-07-13T07:09:52;4.43;;;1.63;;
4500;SDS011;2263;54.654;9.410;2023-07-13T07:12:19;3.90;;;2.03;;
4500;SDS011;2263;54.654;9.410;2023-07-13T07:14:47;5.40;;;2.40;;
4500;SDS011;2263;54.654;9.410;2023-07-13T07:17:15;3.27;;;1.73;;
4500;SDS011;2263;54.654;9.410;2023-07-13T07:19:43;7.27;;;1.87;;
4500;SDS011;2263;54.654;9.410;2023-07-13T07:22:10;5.07;;;1.93;;
4500;SDS011;2263;54.654;9.410;2023-07-13T07:24:38;8.07;;;2.37;;
4500;SDS011;2263;54.654;9.410;2023-07-13T07:27:06;3.90;;;1.87;;
4500;SDS011;2263;54.654;9.410;2023-07-13T07:29:37;6.30;;;1.67;;
4500;SDS011;2263;54.654;9.410;2023-07-13T07:32:14;6.30;;;1.50;;
4500;SDS011;2263;54.654;9.410;2023-07-13T07:35:02;2.83;;;1.20;;
4500;SDS011;2263;54.654;9.410;2023-07-13T07:37:29;4.57;;;1.40;;
4500;SDS011;2263;54.654;9.410;2023-07-13T07:40:00;4.97;;;1.40;;
4500;SDS011;2263;54.654;9.410;2023-07-13T07:42:31;3.87;;;2.23;;
4500;SDS011;2263;54.654;9.410;2023-07-13T07:44:59;5.77;;;1.80;;
4500;SDS011;2263;54.654;9.410;2023-07-13T07:47:28;5.90;;;1.33;;
4500;SDS011;2263;54.654;9.410;2023-07-13T07:49:56;2.50;;;1.90;;
4500;SDS011;2263;54.654;9.410;2023-07-13T07:52:24;2.83;;;1.50;;
4500;SDS011;2263;54.654;9.410;2023-07-13T07:54:51;5.67;;;1.90;;
4500;SDS011;2263;54.654;9.410;2023-07-13T07:57:39;4.70;;;1.87;;
4500;SDS011;2263;54.654;9.410;2023-07-13T08:00:10;3.60;;;1.50;;
4500;SDS011;2263;54.654;9.410;2023-07-13T08:02:41;3.17;;;1.80;;
4500;SDS011;2263;54.654;9.410;2023-07-13T08:05:13;6.50;;;1.70;;
4500;SDS011;2263;54.654;9.410;2023-07-13T08:07:44;1.70;;;1.00;;
4500;SDS011;2263;54.654;9.410;2023-07-13T08:10:11;2.33;;;1.17;;
4500;SDS011;2263;54.654;9.410;2023-07-13T08:12:39;5.07;;;1.93;;
4500;SDS011;2263;54.654;9.410;2023-07-13T08:15:11;1.87;;;1.53;;
4500;SDS011;2263;54.654;9.410;2023-07-13T08:17:41;3.77;;;2.30;;
4500;SDS011;2263;54.654;9.410;2023-07-13T08:20:11;5.20;;;1.50;;
4500;SDS011;2263;54.654;9.410;2023-07-13T08:22:38;2.30;;;1.70;;
4500;SDS011;2263;54.654;9.410;2023-07-13T08:25:06;3.70;;;1.80;;
4500;SDS011;2263;54.654;9.410;2023-07-13T08:27:34;5.70;;;1.60;;
4500;SDS011;2263;54.654;9.410;2023-07-13T08:30:02;5.70;;;2.23;;
4500;SDS011;2263;54.654;9.410;2023-07-13T08:32:32;5.60;;;1.63;;
4500;SDS011;2263;54.654;9.410;2023-07-13T08:35:00;6.93;;;2.10;;
4500;SDS011;2263;54.654;9.410;2023-07-13T08:37:27;3.70;;;1.30;;
4500;SDS011;2263;54.654;9.410;2023-07-13T08:39:55;17.73;;;2.87;;
4500;SDS011;2263;54.654;9.410;2023-07-13T08:45:28;4.73;;;1.97;;
4500;SDS011;2263;54.654;9.410;2023-07-13T08:48:14;9.40;;;2.17;;
4500;SDS011;2263;54.654;9.410;2023-07-13T08:53:51;4.43;;;2.40;;
4500;SDS011;2263;54.654;9.410;2023-07-13T08:56:27;3.90;;;1.93;;
4500;SDS011;2263;54.654;9.410;2023-07-13T08:59:05;4.90;;;1.97;;
4500;SDS011;2263;54.654;9.410;2023-07-13T09:04:41;3.80;;;2.20;;
4500;SDS011;2263;54.654;9.410;2023-07-13T09:09:58;4.43;;;1.70;;
4500;SDS011;2263;54.654;9.410;2023-07-13T09:12:40;2.90;;;1.50;;
4500;SDS011;2263;54.654;9.410;2023-07-13T09:18:33;3.60;;;1.97;;
4500;SDS011;2263;54.654;9.410;2023-07-13T09:21:07;1.97;;;1.80;;
4500;SDS011;2263;54.654;9.410;2023-07-13T09:23:42;2.40;;;1.60;;
4500;SDS011;2263;54.654;9.410;2023-07-13T09:26:17;3.37;;;1.53;;
4500;SDS011;2263;54.654;9.410;2023-07-13T09:28:49;3.33;;;3.03;;
4500;SDS011;2263;54.654;9.410;2023-07-13T09:31:26;5.50;;;1.90;;
4500;SDS011;2263;54.654;9.410;2023-07-13T09:34:01;1.73;;;1.40;;
4500;SDS011;2263;54.654;9.410;2023-07-13T09:36:32;11.37;;;2.17;;
4500;SDS011;2263;54.654;9.410;2023-07-13T09:42:07;3.73;;;1.90;;
4500;SDS011;2263;54.654;9.410;2023-07-13T09:44:56;4.37;;;1.90;;
4500;SDS011;2263;54.654;9.410;2023-07-13T09:47:27;1.83;;;1.10;;
4500;SDS011;2263;54.654;9.410;2023-07-13T09:50:03;4.57;;;2.00;;
4500;SDS011;2263;54.654;9.410;2023-07-13T09:52:40;2.67;;;1.10;;
4500;SDS011;2263;54.654;9.410;2023-07-13T09:55:24;9.00;;;1.93;;
4500;SDS011;2263;54.654;9.410;2023-07-13T09:57:56;1.77;;;1.10;;
4500;SDS011;2263;54.654;9.410;2023-07-13T10:00:29;2.07;;;1.47;;
4500;SDS011;2263;54.654;9.410;2023-07-13T10:05:46;4.33;;;1.27;;
4500;SDS011;2263;54.654;9.410;2023-07-13T10:11:01;5.40;;;1.30;;
4500;SDS011;2263;54.654;9.410;2023-07-13T10:13:53;2.47;;;1.47;;
4500;SDS011;2263;54.654;9.410;2023-07-13T10:16:24;6.83;;;3.30;;
4500;SDS011;2263;54.654;9.410;2023-07-13T10:18:58;2.23;;;0.90;;
4500;SDS011;2263;54.654;9.410;2023-07-13T10:21:36;4.43;;;1.50;;
4500;SDS011;2263;54.654;9.410;2023-07-13T10:27:05;2.93;;;1.33;;
4500;SDS011;2263;54.654;9.410;2023-07-13T10:29:50;2.43;;;1.40;;
4500;SDS011;2263;54.654;9.410;2023-07-13T10:32:26;3.30;;;1.20;;
4500;SDS011;2263;54.654;9.410;2023-07-13T10:34:54;5.60;;;2.07;;
4500;SDS011;2263;54.654;9.410;2023-07-13T10:37:25;3.57;;;1.97;;
4500;SDS011;2263;54.654;9.410;2023-07-13T10:39:56;4.23;;;1.20;;
4500;SDS011;2263;54.654;9.410;2023-07-13T10:42:35;6.00;;;1.73;;
4500;SDS011;2263;54.654;9.410;2023-07-13T10:45:13;6.73;;;1.87;;
4500;SDS011;2263;54.654;9.410;2023-07-13T10:47:43;2.20;;;1.50;;
4500;SDS011;2263;54.654;9.410;2023-07-13T10:50:15;6.20;;;1.60;;
4500;SDS011;2263;54.654;9.410;2023-07-13T10:52:51;3.20;;;1.70;;
4500;SDS011;2263;54.654;9.410;2023-07-13T10:55:53;2.97;;;1.43;;
4500;SDS011;2263;54.654;9.410;2023-07-13T10:58:23;3.50;;;1.60;;
4500;SDS011;2263;54.654;9.410;2023-07-13T11:01:03;2.17;;;1.50;;
4500;SDS011;2263;54.654;9.410;2023-07-13T11:03:31;4.33;;;1.67;;
4500;SDS011;2263;54.654;9.410;2023-07-13T11:06:07;2.67;;;1.73;;
4500;SDS011;2263;54.654;9.410;2023-07-13T11:08:38;2.23;;;1.30;;
4500;SDS011;2263;54.654;9.410;2023-07-13T11:13:57;3.20;;;1.70;;
4500;SDS011;2263;54.654;9.410;2023-07-13T11:16:42;7.33;;;2.73;;
4500;SDS011;2263;54.654;9.410;2023-07-13T11:27:36;7.03;;;4.47;;
4500;SDS011;2263;54.654;9.410;2023-07-13T11:30:24;10.40;;;3.63;;
4500;SDS011;2263;54.654;9.410;2023-07-13T11:33:29;3.33;;;2.50;;
4500;SDS011;2263;54.654;9.410;2023-07-13T11:36:00;3.80;;;1.90;;
4500;SDS011;2263;54.654;9.410;2023-07-13T11:38:33;3.37;;;2.30;;
4500;SDS011;2263;54.654;9.410;2023-07-13T11:41:30;4.60;;;2.57;;
4500;SDS011;2263;54.654;9.410;2023-07-13T11:44:05;6.43;;;1.80;;
4500;SDS011;2263;54.654;9.410;2023-07-13T11:46:45;3.20;;;1.80;;
4500;SDS011;2263;54.654;9.410;2023-07-13T11:49:19;5.50;;;1.77;;
4500;SDS011;2263;54.654;9.410;2023-07-13T11:51:51;2.13;;;1.87;;
4500;SDS011;2263;54.654;9.410;2023-07-13T11:54:29;9.23;;;2.27;;
4500;SDS011;2263;54.654;9.410;2023-07-13T11:59:58;4.70;;;1.87;;
4500;SDS011;2263;54.654;9.410;2023-07-13T12:02:31;8.23;;;1.93;;
4500;SDS011;2263;54.654;9.410;2023-07-13T12:05:01;2.00;;;1.60;;
4500;SDS011;2263;54.654;9.410;2023-07-13T12:07:31;2.40;;;1.47;;
4500;SDS011;2263;54.654;9.410;2023-07-13T12:10:03;4.20;;;1.87;;
4500;SDS011;2263;54.654;9.410;2023-07-13T12:15:38;9.40;;;1.83;;
4500;SDS011;2263;54.654;9.410;2023-07-13T12:18:18;4.23;;;1.50;;
4500;SDS011;2263;54.654;9.410;2023-07-13T12:20:48;9.70;;;2.00;;
4500;SDS011;2263;54.654;9.410;2023-07-13T12:25:58;2.73;;;1.10;;
4500;SDS011;2263;54.654;9.410;2023-07-13T12:28:38;3.00;;;1.63;;
4500;SDS011;2263;54.654;9.410;2023-07-13T12:31:31;2.70;;;1.20;;
4500;SDS011;2263;54.654;9.410;2023-07-13T12:34:10;3.30;;;1.90;;
4500;SDS011;2263;54.654;9.410;2023-07-13T12:36:41;3.40;;;1.60;;
4500;SDS011;2263;54.654;9.410;2023-07-13T12:39:36;15.73;;;9.43;;
4500;SDS011;2263;54.654;9.410;2023-07-13T12:42:13;8.47;;;6.70;;
4500;SDS011;2263;54.654;9.410;2023-07-13T12:44:57;4.10;;;3.80;;
4500;SDS011;2263;54.654;9.410;2023-07-13T12:47:28;5.70;;;4.93;;
4500;SDS011;2263;54.654;9.410;2023-07-13T12:49:58;3.90;;;3.60;;
4500;SDS011;2263;54.654;9.410;2023-07-13T12:52:29;8.23;;;4.20;;
4500;SDS011;2263;54.654;9.410;2023-07-13T12:55:10;4.60;;;3.30;;
4500;SDS011;2263;54.654;9.410;2023-07-13T12:57:53;11.13;;;3.37;;
4500;SDS011;2263;54.654;9.410;2023-07-13T13:00:33;4.43;;;2.93;;
4500;SDS011;2263;54.654;9.410;2023-07-13T13:03:07;4.07;;;2.40;;
4500;SDS011;2263;54.654;9.410;2023-07-13T13:06:05;4.73;;;2.57;;
4500;SDS011;2263;54.654;9.410;2023-07-13T13:08:34;3.50;;;2.20;;
4500;SDS011;2263;54.654;9.410;2023-07-13T13:11:03;5.97;;;1.93;;
4500;SDS011;2263;54.654;9.410;2023-07-13T13:13:31;4.40;;;2.50;;
4500;SDS011;2263;54.654;9.410;2023-07-13T13:16:43;3.60;;;1.67;;
4500;SDS011;2263;54.654;9.410;2023-07-13T13:18:56;3.10;;;1.77;;
4500;SDS011;2263;54.654;9.410;2023-07-13T13:21:24;1.73;;;1.30;;
4500;SDS011;2263;54.654;9.410;2023-07-13T13:23:53;2.37;;;1.37;;
4500;SDS011;2263;54.654;9.410;2023-07-13T13:26:21;2.40;;;1.40;;
4500;SDS011;2263;54.654;9.410;2023-07-13T13:28:49;3.00;;;1.00;;
4500;SDS011;2263;54.654;9.410;2023-07-13T13:31:17;3.10;;;1.33;;
4500;SDS011;2263;54.654;9.410;2023-07-13T13:33:45;3.23;;;1.00;;
4500;SDS011;2263;54.654;9.410;2023-07-13T13:36:15;2.33;;;1.10;;
4500;SDS011;2263;54.654;9.410;2023-07-13T13:38:49;2.20;;;0.63;;
4500;SDS011;2263;54.654;9.410;2023-07-13T13:41:17;5.00;;;0.73;;
4500;SDS011;2263;54.654;9.410;2023-07-13T13:43:45;1.20;;;0.73;;
4500;SDS011;2263;54.654;9.410;2023-07-13T13:46:16;2.43;;;1.10;;
4500;SDS011;2263;54.654;9.410;2023-07-13T13:48:46;1.70;;;1.30;;
4500;SDS011;2263;54.654;9.410;2023-07-13T13:51:20;1.40;;;0.90;;
4500;SDS011;2263;54.654;9.410;2023-07-13T13:53:50;1.50;;;0.90;;
4500;SDS011;2263;54.654;9.410;2023-07-13T13:56:20;2.07;;;0.90;;
4500;SDS011;2263;54.654;9.410;2023-07-13T13:58:48;1.80;;;0.90;;
4500;SDS011;2263;54.654;9.410;2023-07-13T14:01:16;1.23;;;0.60;;
4500;SDS011;2263;54.654;9.410;2023-07-13T14:03:46;1.50;;;1.20;;
4500;SDS011;2263;54.654;9.410;2023-07-13T14:06:24;2.20;;;0.70;;
4500;SDS011;2263;54.654;9.410;2023-07-13T14:08:52;1.20;;;1.10;;
4500;SDS011;2263;54.654;9.410;2023-07-13T14:11:22;2.13;;;0.70;;
4500;SDS011;2263;54.654;9.410;2023-07-13T14:13:52;1.50;;;0.90;;
4500;SDS011;2263;54.654;9.410;2023-07-13T14:16:31;2.33;;;1.00;;
4500;SDS011;2263;54.654;9.410;2023-07-13T14:19:00;1.50;;;0.90;;
4500;SDS011;2263;54.654;9.410;2023-07-13T14:21:28;3.43;;;0.80;;
4500;SDS011;2263;54.654;9.410;2023-07-13T14:23:57;4.37;;;1.23;;
4500;SDS011;2263;54.654;9.410;2023-07-13T14:26:25;2.53;;;1.10;;
4500;SDS011;2263;54.654;9.410;2023-07-13T14:28:55;2.03;;;1.40;;
4500;SDS011;2263;54.654;9.410;2023-07-13T14:31:25;2.07;;;1.00;;
4500;SDS011;2263;54.654;9.410;2023-07-13T14:33:57;1.30;;;0.80;;
4500;SDS011;2263;54.654;9.410;2023-07-13T14:36:32;4.23;;;1.17;;
4500;SDS011;2263;54.654;9.410;2023-07-13T14:39:13;2.67;;;1.00;;
4500;SDS011;2263;54.654;9.410;2023-07-13T14:41:43;2.27;;;0.80;;
4500;SDS011;2263;54.654;9.410;2023-07-13T14:44:15;4.27;;;1.07;;
4500;SDS011;2263;54.654;9.410;2023-07-13T14:46:44;3.00;;;1.20;;
4500;SDS011;2263;54.654;9.410;2023-07-13T14:51:59;2.43;;;1.47;;
4500;SDS011;2263;54.654;9.410;2023-07-13T14:54:30;2.00;;;1.00;;
4500;SDS011;2263;54.654;9.410;2023-07-13T14:57:00;2.43;;;1.07;;
4500;SDS011;2263;54.654;9.410;2023-07-13T14:59:28;4.33;;;2.03;;
4500;SDS011;2263;54.654;9.410;2023-07-13T15:01:56;4.83;;;1.60;;
4500;SDS011;2263;54.654;9.410;2023-07-13T15:04:23;2.60;;;1.50;;
4500;SDS011;2263;54.654;9.410;2023-07-13T15:06:58;3.40;;;1.27;;
4500;SDS011;2263;54.654;9.410;2023-07-13T15:09:29;3.00;;;1.53;;
4500;SDS011;2263;54.654;9.410;2023-07-13T15:11:57;3.47;;;1.40;;
4500;SDS011;2263;54.654;9.410;2023-07-13T15:14:26;4.17;;;1.80;;
4500;SDS011;2263;54.654;9.410;2023-07-13T15:16:57;3.03;;;1.67;;
4500;SDS011;2263;54.654;9.410;2023-07-13T15:19:25;3.70;;;1.50;;
4500;SDS011;2263;54.654;9.410;2023-07-13T15:21:54;4.40;;;1.60;;
4500;SDS011;2263;54.654;9.410;2023-07-13T15:24:24;3.27;;;1.60;;
4500;SDS011;2263;54.654;9.410;2023-07-13T15:26:53;9.43;;;1.77;;
4500;SDS011;2263;54.654;9.410;2023-07-13T15:29:21;3.97;;;1.30;;
4500;SDS011;2263;54.654;9.410;2023-07-13T15:31:50;4.40;;;1.10;;
4500;SDS011;2263;54.654;9.410;2023-07-13T15:34:18;9.17;;;1.80;;
4500;SDS011;2263;54.654;9.410;2023-07-13T15:36:51;5.40;;;1.63;;
4500;SDS011;2263;54.654;9.410;2023-07-13T15:39:19;5.37;;;1.60;;
4500;SDS011;2263;54.654;9.410;2023-07-13T15:41:47;10.60;;;2.40;;
4500;SDS011;2263;54.654;9.410;2023-07-13T15:44:28;9.10;;;2.07;;
4500;SDS011;2263;54.654;9.410;2023-07-13T15:46:58;5.87;;;3.53;;
4500;SDS011;2263;54.654;9.410;2023-07-13T15:49:27;2.30;;;1.20;;
4500;SDS011;2263;54.654;9.410;2023-07-13T15:51:55;4.17;;;1.90;;
4500;SDS011;2263;54.654;9.410;2023-07-13T15:54:24;5.40;;;1.27;;
4500;SDS011;2263;54.654;9.410;2023-07-13T15:56:53;2.83;;;1.40;;
4500;SDS011;2263;54.654;9.410;2023-07-13T15:59:22;4.23;;;2.00;;
4500;SDS011;2263;54.654;9.410;2023-07-13T16:01:50;2.13;;;1.63;;
4500;SDS011;2263;54.654;9.410;2023-07-13T16:04:18;3.57;;;1.50;;
4500;SDS011;2263;54.654;9.410;2023-07-13T16:06:46;7.13;;;1.60;;
4500;SDS011;2263;54.654;9.410;2023-07-13T16:09:19;4.43;;;1.30;;
4500;SDS011;2263;54.654;9.410;2023-07-13T16:11:49;6.90;;;1.53;;
4500;SDS011;2263;54.654;9.410;2023-07-13T16:14:19;2.13;;;1.50;;
4500;SDS011;2263;54.654;9.410;2023-07-13T16:16:48;3.83;;;1.73;;
4500;SDS011;2263;54.654;9.410;2023-07-13T16:19:17;8.73;;;1.90;;
4500;SDS011;2263;54.654;9.410;2023-07-13T16:21:46;3.80;;;1.20;;
4500;SDS011;2263;54.654;9.410;2023-07-13T16:24:18;2.57;;;1.17;;
4500;SDS011;2263;54.654;9.410;2023-07-13T16:26:48;4.30;;;1.50;;
4500;SDS011;2263;54.654;9.410;2023-07-13T16:31:56;4.97;;;1.70;;